Time;durP1;ratioP1;P1;durP2;ratioP2;P2;SDS_P1;SDS_P2;PMS_P1;PMS_P2;Temp;Humidity;BMP_temperature;BMP_pressure;BME280_temperature;BME280_humidity;BME280_pressure;Samples;Min_cycle;Max_cycle;Signal;HPM_P1;HPM_P2
2021/06/20 00:00:16;;;;;;;8.52;6.53;;;;;;;23.12;72.27;99365.44;4978068;28;20047;-67
2021/06/20 00:02:51;;;;;;;7.25;5.90;;;;;;;23.08;72.37;99366.56;4978078;28;20465;-67
2021/06/20 00:05:25;;;;;;;9.93;6.47;;;;;;;23.04;72.12;99359.81;4977759;28;20141;-67
2021/06/20 00:07:54;;;;;;;9.45;6.40;;;;;;;22.95;72.04;99345.59;4977531;28;20054;-67
2021/06/20 00:10:27;;;;;;;7.75;6.20;;;;;;;22.98;72.10;99360.19;4977858;28;20130;-67
2021/06/20 00:13:02;;;;;;;8.85;6.10;;;;;;;22.95;71.95;99360.34;4977572;28;20054;-67
2021/06/20 00:15:37;;;;;;;7.53;6.30;;;;;;;22.94;71.81;99369.09;4977879;28;20070;-67
2021/06/20 00:18:11;;;;;;;8.20;6.20;;;;;;;22.91;71.69;99364.91;4977534;28;20055;-67
2021/06/20 00:20:47;;;;;;;8.15;6.28;;;;;;;22.88;71.66;99364.22;4977443;28;20097;-67
2021/06/20 00:23:17;;;;;;;7.57;5.95;;;;;;;22.86;71.68;99366.09;4977196;28;20055;-67
2021/06/20 00:25:50;;;;;;;8.73;6.38;;;;;;;22.75;71.74;99358.03;4977413;28;20046;-67
2021/06/20 00:28:23;;;;;;;8.75;6.38;;;;;;;22.56;71.92;99338.19;4977274;28;20054;-66
2021/06/20 00:30:54;;;;;;;10.15;6.57;;;;;;;22.57;71.97;99365.91;4977063;28;20129;-67
2021/06/20 00:33:26;;;;;;;8.48;6.43;;;;;;;22.54;72.18;99358.25;4976978;28;20493;-67
2021/06/20 00:35:57;;;;;;;8.52;6.57;;;;;;;22.58;71.81;99361.50;4977218;28;20129;-67
2021/06/20 00:38:29;;;;;;;9.35;6.43;;;;;;;22.58;71.52;99351.09;4977438;28;20075;-67
2021/06/20 00:41:02;;;;;;;8.70;6.10;;;;;;;22.60;71.30;99355.31;4977033;28;20053;-67
2021/06/20 00:43:32;;;;;;;8.93;6.18;;;;;;;22.56;70.87;99347.75;4977095;28;20082;-67
2021/06/20 00:46:08;;;;;;;9.45;6.97;;;;;;;22.55;70.69;99340.91;4976455;28;20061;-67
2021/06/20 00:48:44;;;;;;;8.38;6.03;;;;;;;22.40;70.85;99332.16;4976703;28;20047;-67
2021/06/20 00:51:17;;;;;;;13.68;6.30;;;;;;;22.29;71.30;99333.66;4976843;28;20058;-66
2021/06/20 00:53:50;;;;;;;10.18;6.07;;;;;;;22.19;71.71;99327.28;4976938;28;20494;-66
2021/06/20 00:56:22;;;;;;;8.77;5.85;;;;;;;22.23;71.42;99334.81;4976853;28;20162;-66
2021/06/20 00:59:02;;;;;;;7.82;6.25;;;;;;;22.25;71.32;99345.97;4976782;28;20050;-66
2021/06/20 01:01:36;;;;;;;7.18;5.35;;;;;;;22.20;71.38;99344.53;4976703;28;20054;-66
2021/06/20 01:04:06;;;;;;;10.43;6.22;;;;;;;22.16;71.60;99343.03;4976676;28;20062;-66
2021/06/20 01:06:38;;;;;;;;;;;;;;;22.11;71.40;99334.63;4977013;28;20055;-67
2021/06/20 01:09:11;;;;;;;9.10;5.70;;;;;;;22.10;71.49;99333.78;4976288;28;19969;-66
2021/06/20 01:11:44;;;;;;;11.48;6.80;;;;;;;22.04;71.31;99326.34;4976266;28;20420;-67
2021/06/20 01:14:14;;;;;;;8.85;5.45;;;;;;;22.08;71.09;99333.03;4541197;23;20058;-67
2021/06/20 01:16:45;;;;;;;9.20;6.00;;;;;;;21.99;71.36;99333.53;4995924;28;20137;-68
2021/06/20 01:19:23;;;;;;;8.07;6.22;;;;;;;21.96;71.42;99336.28;4995833;28;20046;-68
2021/06/20 01:21:53;;;;;;;8.50;5.97;;;;;;;21.95;71.26;99329.44;4995789;28;20515;-68
2021/06/20 01:24:27;;;;;;;9.48;6.20;;;;;;;21.85;71.59;99333.41;4995764;28;20047;-68
2021/06/20 01:26:57;;;;;;;8.52;5.95;;;;;;;21.71;72.12;99328.91;4995707;28;20062;-67
2021/06/20 01:29:32;;;;;;;8.32;6.57;;;;;;;21.61;72.12;99329.44;4995358;28;20049;-68
2021/06/20 01:32:06;;;;;;;7.82;6.10;;;;;;;21.38;72.86;99334.03;4995864;28;20054;-68
2021/06/20 01:34:49;;;;;;;9.68;6.65;;;;;;;21.20;73.42;99334.97;4995349;28;20056;-68
2021/06/20 01:37:22;;;;;;;9.88;6.50;;;;;;;21.13;73.59;99338.78;4995531;28;20057;-68
2021/06/20 01:39:56;;;;;;;9.05;6.60;;;;;;;21.22;74.03;99335.72;4995462;28;20072;-68
2021/06/20 01:42:29;;;;;;;8.18;5.97;;;;;;;21.33;74.00;99330.03;4995350;28;20543;-68
2021/06/20 01:45:02;;;;;;;7.38;5.75;;;;;;;21.43;74.00;99323.41;4995358;28;20054;-67
2021/06/20 01:47:32;;;;;;;8.18;6.30;;;;;;;21.54;73.63;99334.13;4995255;28;20077;-67
2021/06/20 01:52:46;;;;;;;9.02;6.80;;;;;;;21.52;73.21;99335.97;4935464;29;20063;-67
2021/06/20 01:55:17;;;;;;;9.07;7.07;;;;;;;21.38;73.41;99334.03;4935347;29;20409;-68
2021/06/20 01:57:47;;;;;;;9.68;6.40;;;;;;;21.42;73.49;99333.91;4934263;29;20454;-68
2021/06/20 02:00:20;;;;;;;9.40;6.30;;;;;;;21.38;73.26;99328.84;4935352;29;20040;-68
2021/06/20 02:02:49;;;;;;;8.35;5.82;;;;;;;21.36;73.06;99333.28;4935105;29;20052;-67
2021/06/20 02:05:18;;;;;;;;;;;;;;;21.36;72.85;99325.50;4935736;29;20052;-68
2021/06/20 02:07:54;;;;;;;;;;;;;;;21.33;72.90;99323.03;4935191;29;19923;-67
2021/06/20 02:10:27;;;;;;;9.13;6.03;;;;;;;21.30;72.73;99320.63;4935411;29;20018;-68
2021/06/20 02:13:00;;;;;;;11.80;6.82;;;;;;;21.25;72.63;99322.59;4934888;29;20055;-68
2021/06/20 02:15:35;;;;;;;7.45;5.93;;;;;;;21.28;72.70;99321.63;4934758;29;20417;-67
2021/06/20 02:18:08;;;;;;;7.68;5.65;;;;;;;21.29;72.38;99328.47;4986526;28;20064;-68
2021/06/20 02:20:41;;;;;;;7.80;5.88;;;;;;;21.26;72.43;99313.88;4994846;28;20046;-68
2021/06/20 02:23:14;;;;;;;7.88;6.20;;;;;;;21.25;72.50;99322.59;4994752;28;20093;-68
2021/06/20 02:25:45;;;;;;;8.52;5.88;;;;;;;21.30;72.24;99320.63;4994622;28;20112;-67
2021/06/20 02:28:18;;;;;;;8.07;5.97;;;;;;;21.31;72.07;99321.44;4994383;28;20046;-68
2021/06/20 02:30:50;;;;;;;10.57;6.13;;;;;;;21.25;71.98;99317.41;4994611;28;20065;-69
2021/06/20 02:33:23;;;;;;;12.45;6.72;;;;;;;21.22;72.18;99317.56;4994616;28;20519;-68
2021/06/20 02:35:52;;;;;;;12.55;5.90;;;;;;;21.20;72.19;99310.75;4994538;28;20061;-68
2021/06/20 02:38:21;;;;;;;9.18;6.15;;;;;;;21.09;72.33;99306.09;4994511;28;20054;-68
2021/06/20 02:40:55;;;;;;;9.75;6.55;;;;;;;21.04;72.69;99318.41;4994469;28;20049;-68
2021/06/20 02:43:25;;;;;;;10.30;6.25;;;;;;;20.91;73.14;99317.34;4994534;28;20112;-68
2021/06/20 02:45:57;;;;;;;8.52;5.97;;;;;;;20.77;73.42;99301.63;4994468;28;20050;-68
2021/06/20 02:48:27;;;;;;;9.88;6.90;;;;;;;20.71;73.78;99299.31;4994305;28;20047;-68
2021/06/20 02:50:59;;;;;;;8.27;6.90;;;;;;;20.56;74.02;99306.06;4994128;28;20057;-69
2021/06/20 02:53:29;;;;;;;9.40;6.35;;;;;;;20.47;74.46;99303.06;4994369;28;20558;-69
2021/06/20 02:56:02;;;;;;;11.88;6.28;;;;;;;20.30;74.79;99293.47;4994302;28;20546;-69
2021/06/20 02:58:32;;;;;;;8.75;6.82;;;;;;;20.21;75.41;99293.88;4994327;28;20132;-67
2021/06/20 03:01:05;;;;;;;11.38;7.05;;;;;;;20.12;75.94;99298.63;4994312;28;20062;-68
2021/06/20 03:03:35;;;;;;;11.25;7.40;;;;;;;20.19;76.39;99300.03;4994358;28;20128;-68
2021/06/20 03:06:07;;;;;;;10.98;7.20;;;;;;;20.34;76.11;99310.59;4994248;28;20053;-68
2021/06/20 03:08:36;;;;;;;9.35;6.53;;;;;;;20.36;76.07;99313.94;4995157;28;20042;-68
2021/06/20 03:11:10;;;;;;;9.40;7.35;;;;;;;20.31;75.94;99315.06;4998141;28;20594;-68
2021/06/20 03:13:40;;;;;;;11.18;7.30;;;;;;;20.34;76.20;99314.91;4970986;28;20149;-68
2021/06/20 03:16:13;;;;;;;9.65;7.30;;;;;;;20.29;76.07;99306.50;4998112;28;20053;-68
2021/06/20 03:18:43;;;;;;;10.02;6.97;;;;;;;20.39;76.18;99305.19;4998050;28;20169;-67
2021/06/20 03:21:16;;;;;;;8.60;6.93;;;;;;;20.53;75.75;99306.22;4997968;28;20058;-69
2021/06/20 03:23:51;;;;;;;9.90;7.30;;;;;;;20.68;75.17;99315.03;4997953;28;20054;-68
2021/06/20 03:26:26;;;;;;;11.05;6.70;;;;;;;20.70;74.67;99315.78;4998005;28;20050;-68
2021/06/20 03:28:58;;;;;;;8.63;6.97;;;;;;;20.73;74.56;99324.25;4997801;28;20066;-67
2021/06/20 03:31:31;;;;;;;11.95;6.82;;;;;;;20.76;74.37;99312.03;4997832;28;20065;-68
2021/06/20 03:34:04;;;;;;;10.10;7.20;;;;;;;20.70;74.27;99313.19;4997830;28;20065;-68
2021/06/20 03:36:36;;;;;;;8.85;7.00;;;;;;;20.64;74.55;99309.13;4997786;28;20054;-68
2021/06/20 03:39:09;;;;;;;10.32;6.70;;;;;;;20.75;74.60;99311.22;4997680;28;20058;-67
2021/06/20 03:41:43;;;;;;;11.10;7.10;;;;;;;20.91;74.44;99317.34;4997660;28;20050;-67
2021/06/20 03:44:16;;;;;;;8.05;6.40;;;;;;;20.93;74.34;99305.13;4997640;28;20058;-67
2021/06/20 03:46:51;;;;;;;11.77;6.93;;;;;;;21.10;74.25;99307.78;4997607;28;20046;-68
2021/06/20 03:49:24;;;;;;;10.07;6.60;;;;;;;21.19;73.99;99298.69;4997314;28;20046;-68
2021/06/20 03:51:56;;;;;;;8.63;7.10;;;;;;;21.25;73.96;99303.59;4997833;28;20078;-68
2021/06/20 03:54:29;;;;;;;10.23;7.18;;;;;;;21.33;73.94;99299.69;4997485;28;20061;-68
2021/06/20 03:57:03;;;;;;;9.77;7.45;;;;;;;21.43;74.00;99292.25;4997403;28;20531;-68
2021/06/20 03:59:34;;;;;;;8.90;7.22;;;;;;;21.52;73.80;99288.38;4997559;28;20053;-68
2021/06/20 04:02:06;;;;;;;;;;;;;;;21.61;73.57;99293.09;4997671;28;20046;-67
2021/06/20 04:04:40;;;;;;;12.02;7.35;;;;;;;21.71;73.42;99292.53;4997584;28;19922;-68
2021/06/20 04:07:14;;;;;;;9.70;7.30;;;;;;;21.75;73.04;99290.59;4997493;28;20062;-67
2021/06/20 04:09:46;;;;;;;8.25;7.00;;;;;;;21.77;72.96;99291.34;4996972;28;20047;-68
2021/06/20 04:12:25;;;;;;;8.52;6.88;;;;;;;21.87;73.05;99297.78;4997159;28;20073;-67
2021/06/20 04:14:54;;;;;;;10.77;7.78;;;;;;;21.97;72.89;99292.03;4996133;28;20124;-68
2021/06/20 04:17:23;;;;;;;12.82;7.82;;;;;;;22.11;72.49;99300.84;4997017;28;20069;-68
2021/06/20 04:19:56;;;;;;;12.02;8.23;;;;;;;22.13;72.50;99297.25;4978468;28;20536;-68
2021/06/20 04:22:26;;;;;;;9.40;8.05;;;;;;;22.25;72.71;99296.56;4979655;28;20062;-69
2021/06/20 04:24:55;;;;;;;12.10;7.78;;;;;;;22.39;72.68;99298.41;4996615;28;20038;-68
2021/06/20 04:27:26;;;;;;;14.48;8.35;;;;;;;22.53;72.44;99312.34;4996627;28;20500;-69
2021/06/20 04:29:55;;;;;;;11.82;8.40;;;;;;;22.68;71.97;99314.13;4996364;28;20181;-69
2021/06/20 04:32:25;;;;;;;12.75;7.95;;;;;;;22.78;71.78;99305.81;4996802;28;20500;-69
2021/06/20 04:34:54;;;;;;;12.73;8.18;;;;;;;22.90;71.88;99315.53;4996480;28;20054;-69
2021/06/20 04:37:24;;;;;;;10.23;7.70;;;;;;;23.05;71.46;99317.25;4996409;28;20134;-69
2021/06/20 04:39:52;;;;;;;9.02;7.65;;;;;;;23.23;71.22;99324.00;4996317;28;20080;-69
2021/06/20 04:42:27;;;;;;;12.50;8.30;;;;;;;23.44;70.57;99333.22;4996328;28;20074;-69
2021/06/20 04:44:58;;;;;;;10.63;7.70;;;;;;;23.64;70.12;99332.88;4996314;28;20073;-69
2021/06/20 04:47:28;;;;;;;10.50;7.95;;;;;;;23.82;69.41;99333.53;4996292;28;20046;-70
2021/06/20 04:49:57;;;;;;;9.57;7.30;;;;;;;23.92;68.88;99330.28;4996551;28;20136;-70
2021/06/20 04:52:27;;;;;;;8.95;7.05;;;;;;;24.07;68.56;99335.53;4996082;28;20058;-70
2021/06/20 04:54:56;;;;;;;15.68;8.63;;;;;;;24.16;67.97;99333.22;4996118;28;20042;-69
2021/06/20 04:57:27;;;;;;;8.48;7.30;;;;;;;24.29;67.67;99333.25;4996279;28;20104;-69
2021/06/20 05:00:01;;;;;;;9.18;6.85;;;;;;;24.38;67.00;99328.31;4995820;28;20054;-70
2021/06/20 05:02:32;;;;;;;8.45;7.13;;;;;;;24.54;66.66;99341.25;4995993;28;20055;-68
2021/06/20 05:05:01;;;;;;;9.63;7.28;;;;;;;24.61;66.30;99346.00;4995884;28;20046;-69
2021/06/20 05:07:31;;;;;;;9.07;7.38;;;;;;;24.71;65.89;99350.63;4996136;28;20042;-68
2021/06/20 05:09:59;;;;;;;8.73;7.47;;;;;;;24.81;65.32;99344.72;4995723;28;20050;-69
2021/06/20 05:12:29;;;;;;;8.85;7.22;;;;;;;24.94;64.85;99343.00;4996053;28;20042;-69
2021/06/20 05:14:59;;;;;;;8.82;7.03;;;;;;;24.98;64.63;99354.91;4995544;28;20056;-69
2021/06/20 05:17:28;;;;;;;9.68;7.00;;;;;;;25.06;64.34;99347.44;4995733;28;20074;-69
2021/06/20 05:19:58;;;;;;;10.32;6.72;;;;;;;25.11;64.24;99350.59;4995604;28;20057;-69
2021/06/20 05:22:27;;;;;;;9.65;6.85;;;;;;;25.12;64.58;99362.69;4996035;28;20054;-69
2021/06/20 05:24:56;;;;;;;8.75;6.85;;;;;;;25.24;64.04;99355.84;4995512;28;20050;-69
2021/06/20 05:27:25;;;;;;;10.30;6.97;;;;;;;25.30;63.51;99356.28;4995487;28;20052;-69
2021/06/20 05:29:54;;;;;;;8.23;6.85;;;;;;;25.39;63.12;99365.28;4995347;28;20447;-70
2021/06/20 05:32:25;;;;;;;;;;;;;;;25.54;63.02;99368.69;4995716;28;20077;-69
2021/06/20 05:34:54;;;;;;;7.93;6.38;;;;;;;25.67;62.99;99364.31;4995442;28;19954;-70
2021/06/20 05:37:23;;;;;;;9.77;7.00;;;;;;;25.79;61.93;99368.72;4995211;28;20137;-70
2021/06/20 05:39:52;;;;;;;8.32;6.57;;;;;;;25.89;61.37;99365.34;4995208;28;20042;-70
2021/06/20 05:42:21;;;;;;;7.78;6.97;;;;;;;25.98;61.42;99347.38;4995108;28;20042;-70
2021/06/20 05:44:51;;;;;;;10.30;7.10;;;;;;;26.13;61.36;99355.00;4995135;28;20046;-70
2021/06/20 05:47:20;;;;;;;8.13;7.10;;;;;;;26.23;60.91;99355.19;4994956;28;20046;-70
2021/06/20 05:49:51;;;;;;;8.52;6.55;;;;;;;26.22;61.54;99370.09;4995248;28;20034;-70
2021/06/20 05:52:23;;;;;;;7.70;6.13;;;;;;;26.25;61.15;99369.84;4995051;28;20550;-68
2021/06/20 05:54:56;;;;;;;8.85;6.38;;;;;;;26.04;61.03;99367.84;4995129;28;20057;-68
2021/06/20 05:57:25;;;;;;;7.55;6.72;;;;;;;25.77;61.67;99370.59;4995189;28;20496;-68
2021/06/20 05:59:58;;;;;;;9.15;7.07;;;;;;;25.59;62.42;99374.44;4995094;28;20054;-69
2021/06/20 06:02:27;;;;;;;8.50;7.15;;;;;;;25.31;63.34;99373.63;4995371;28;20061;-69
2021/06/20 06:04:58;;;;;;;8.60;6.90;;;;;;;25.21;64.20;99383.03;4995042;28;20432;-68
2021/06/20 06:07:30;;;;;;;9.60;7.38;;;;;;;25.27;64.05;99380.00;4994966;28;20053;-69
2021/06/20 06:10:09;;;;;;;7.95;6.65;;;;;;;25.33;63.47;99375.31;4994760;28;20058;-69
2021/06/20 06:12:50;;;;;;;8.98;6.57;;;;;;;25.69;62.43;99367.66;4991889;28;20061;-69
2021/06/20 06:19:10;;;;;;;8.07;6.32;;;;;;;26.41;60.08;99367.84;4979813;28;20137;-68
2021/06/20 06:21:40;;;;;;;8.35;6.15;;;;;;;26.55;59.65;99375.56;4976757;28;20057;-68
2021/06/20 06:24:11;;;;;;;10.98;6.30;;;;;;;26.73;59.11;99372.59;4994593;28;20489;-68
2021/06/20 06:26:40;;;;;;;7.95;6.38;;;;;;;26.77;58.19;99358.34;4994783;28;20057;-69
2021/06/20 06:29:11;;;;;;;9.10;6.32;;;;;;;26.89;58.30;99357.47;4993116;28;20100;-70
2021/06/20 06:31:41;;;;;;;7.72;6.53;;;;;;;27.01;57.92;99361.81;4994176;28;20051;-69
2021/06/20 06:34:12;;;;;;;8.32;6.28;;;;;;;27.06;58.36;99372.78;4977130;28;20057;-69
2021/06/20 06:36:43;;;;;;;7.85;5.85;;;;;;;27.19;57.68;99361.28;4994540;28;20062;-69
2021/06/20 06:39:13;;;;;;;7.50;6.07;;;;;;;27.42;57.82;99351.75;4994473;28;20566;-69
2021/06/20 06:41:42;;;;;;;7.68;6.43;;;;;;;27.61;57.49;99343.34;4976812;28;20058;-69
2021/06/20 06:44:11;;;;;;;8.02;6.30;;;;;;;27.60;56.65;99336.41;4994081;28;20054;-69
2021/06/20 06:46:41;;;;;;;7.57;6.13;;;;;;;27.69;56.49;99338.34;4994424;28;20061;-69
2021/06/20 06:49:11;;;;;;;8.80;6.63;;;;;;;27.84;55.70;99332.75;4994516;28;20491;-69
2021/06/20 06:51:40;;;;;;;6.97;5.90;;;;;;;27.84;55.19;99316.16;4993997;28;20070;-68
2021/06/20 06:54:11;;;;;;;9.55;6.25;;;;;;;28.06;55.42;99345.06;4994339;28;20060;-69
2021/06/20 06:56:41;;;;;;;8.77;5.97;;;;;;;28.19;55.38;99337.09;4994292;28;20105;-69
2021/06/20 06:59:10;;;;;;;9.27;5.93;;;;;;;28.20;55.03;99333.50;4994075;28;20096;-69
2021/06/20 07:01:40;;;;;;;7.93;6.30;;;;;;;28.21;54.80;99327.28;4993028;28;20057;-69
2021/06/20 07:04:09;;;;;;;9.18;6.00;;;;;;;28.34;53.90;99331.44;4994012;28;20054;-69
2021/06/20 07:06:38;;;;;;;;;;;;;;;28.41;53.98;99347.56;4994571;28;20081;-69
2021/06/20 07:09:08;;;;;;;7.50;6.30;;;;;;;28.35;54.40;99346.25;4994424;28;19926;-69
2021/06/20 07:11:39;;;;;;;7.00;5.63;;;;;;;28.43;53.67;99350.91;4993746;28;20042;-69
2021/06/20 07:14:08;;;;;;;7.80;6.30;;;;;;;28.54;53.43;99348.25;4993666;28;20056;-69
2021/06/20 07:16:38;;;;;;;9.70;6.03;;;;;;;28.66;52.78;99342.06;4994428;28;20046;-70
2021/06/20 07:19:07;;;;;;;;;;;;;;;28.69;51.97;99341.81;4994380;28;20548;-69
2021/06/20 07:21:36;;;;;;;7.15;5.18;;;;;;;28.84;52.06;99345.81;4994016;28;20431;-70
2021/06/20 07:24:06;;;;;;;;;;;;;;;28.75;52.33;99341.31;4994326;28;20050;-68
2021/06/20 07:26:35;;;;;;;8.13;5.90;;;;;;;28.60;52.96;99342.56;4993696;28;19921;-69
2021/06/20 07:29:06;;;;;;;8.07;5.90;;;;;;;28.42;53.46;99344.81;4993989;28;20515;-69
2021/06/20 07:31:36;;;;;;;7.25;5.82;;;;;;;28.35;54.18;99325.25;4993929;28;20047;-69
2021/06/20 07:34:05;;;;;;;8.13;5.88;;;;;;;28.32;54.68;99324.66;4993904;28;20105;-69
2021/06/20 07:36:34;;;;;;;;;;;;;;;28.35;54.28;99329.66;4993980;28;20081;-68
2021/06/20 07:39:04;;;;;;;10.48;5.25;;;;;;;28.35;53.53;99327.03;4993840;28;19922;-69
2021/06/20 07:41:34;;;;;;;7.97;5.90;;;;;;;28.37;53.55;99330.38;4993666;28;20054;-67
2021/06/20 07:44:06;;;;;;;8.43;6.28;;;;;;;28.58;53.12;99339.16;4993822;28;20146;-69
2021/06/20 07:46:35;;;;;;;10.48;5.70;;;;;;;28.76;53.08;99339.50;4994174;28;20089;-69
2021/06/20 07:49:06;;;;;;;8.05;5.68;;;;;;;28.97;52.32;99333.34;4993788;28;20061;-69
2021/06/20 07:51:36;;;;;;;6.97;5.32;;;;;;;28.77;51.93;99328.88;4993627;28;20097;-69
2021/06/20 07:54:05;;;;;;;;;;;;;;;28.75;51.59;99319.44;4994135;28;20050;-70
2021/06/20 07:56:34;;;;;;;6.32;4.50;;;;;;;28.91;50.90;99323.34;4996115;28;19922;-69
2021/06/20 07:59:05;;;;;;;9.88;5.22;;;;;;;29.05;50.32;99323.06;4995743;28;20043;-69
2021/06/20 08:01:37;;;;;;;7.75;5.05;;;;;;;29.25;50.57;99323.22;4996733;28;20050;-69
2021/06/20 08:04:06;;;;;;;5.78;4.10;;;;;;;29.35;50.03;99324.09;4997533;28;20061;-69
2021/06/20 08:06:36;;;;;;;16.85;5.82;;;;;;;29.39;49.43;99315.03;4997067;28;20074;-69
2021/06/20 08:09:06;;;;;;;10.15;4.43;;;;;;;29.45;49.71;99303.97;4997048;28;20054;-69
2021/06/20 08:11:36;;;;;;;5.35;3.95;;;;;;;29.41;49.63;99307.84;4979541;28;20058;-70
2021/06/20 08:14:07;;;;;;;5.15;3.80;;;;;;;29.59;49.19;99291.31;4995048;28;20174;-69
2021/06/20 08:16:37;;;;;;;6.32;4.20;;;;;;;29.76;48.92;99287.25;4996994;28;20050;-68
2021/06/20 08:19:07;;;;;;;7.10;3.70;;;;;;;29.65;48.51;99284.72;4997243;28;20469;-69
2021/06/20 08:21:36;;;;;;;5.13;4.10;;;;;;;29.75;48.36;99280.34;4996851;28;20141;-69
2021/06/20 08:24:07;;;;;;;5.57;3.80;;;;;;;29.68;48.34;99280.00;4996805;28;20046;-68
2021/06/20 08:26:37;;;;;;;4.72;3.53;;;;;;;29.57;48.12;99271.38;4996795;28;20065;-70
2021/06/20 08:29:07;;;;;;;;;;;;;;;29.74;48.16;99276.03;4995903;28;20062;-71
2021/06/20 08:31:37;;;;;;;10.18;4.20;;;;;;;30.06;47.46;99274.13;4996408;28;19922;-70
2021/06/20 08:34:07;;;;;;;7.32;3.65;;;;;;;30.03;46.63;99269.09;4996639;28;20488;-70
2021/06/20 08:36:37;;;;;;;13.88;4.65;;;;;;;30.02;45.88;99269.25;4996598;28;20138;-70
2021/06/20 08:39:06;;;;;;;;;;;;;;;30.11;46.38;99269.28;4996980;28;20062;-70
2021/06/20 08:41:40;;;;;;;5.90;3.85;;;;;;;30.32;46.97;99270.00;4979063;28;19922;-71
2021/06/20 08:44:21;;;;;;;4.90;3.17;;;;;;;30.36;47.00;99268.78;4996218;28;20058;-70
2021/06/20 08:46:52;;;;;;;5.40;3.50;;;;;;;30.40;46.27;99262.28;4996554;28;20085;-69
2021/06/20 08:49:22;;;;;;;4.65;3.28;;;;;;;30.37;45.79;99273.13;4996681;28;20061;-69
2021/06/20 08:51:54;;;;;;;5.75;3.38;;;;;;;30.27;45.23;99266.94;4996038;28;20061;-68
2021/06/20 08:54:24;;;;;;;5.22;3.80;;;;;;;30.39;45.60;99270.34;4996251;28;20054;-68
2021/06/20 08:56:54;;;;;;;5.03;3.42;;;;;;;30.40;45.99;99270.19;4996340;28;20097;-68
2021/06/20 08:59:26;;;;;;;4.72;3.60;;;;;;;30.24;45.28;99264.59;4987309;28;20050;-71
2021/06/20 09:01:56;;;;;;;5.55;3.58;;;;;;;30.22;45.65;99270.94;4982995;28;20134;-70
2021/06/20 09:04:32;;;;;;;5.13;3.15;;;;;;;30.07;46.40;99288.09;4993793;28;20456;-71
2021/06/20 09:07:03;;;;;;;4.07;2.80;;;;;;;30.23;46.61;99289.28;4992606;28;20081;-70
2021/06/20 09:09:35;;;;;;;4.88;3.35;;;;;;;30.44;46.04;99289.19;4993103;28;20046;-68
2021/06/20 09:12:11;;;;;;;5.00;3.05;;;;;;;30.52;45.29;99285.88;4991914;28;20054;-67
2021/06/20 09:14:47;;;;;;;5.75;3.03;;;;;;;30.71;45.40;99286.75;4995488;28;20551;-69
2021/06/20 09:17:25;;;;;;;4.50;3.30;;;;;;;30.86;43.99;99284.50;4990535;28;20073;-71
2021/06/20 09:19:58;;;;;;;3.95;3.05;;;;;;;30.82;43.44;99283.13;4995278;28;20444;-70
2021/06/20 09:22:28;;;;;;;5.50;3.42;;;;;;;30.93;43.70;99281.22;4995477;28;20050;-71
2021/06/20 09:25:02;;;;;;;8.52;3.38;;;;;;;30.49;44.18;99282.56;4995752;28;20054;-69
2021/06/20 09:27:31;;;;;;;5.53;3.42;;;;;;;30.34;44.61;99278.66;4995698;28;20056;-70
2021/06/20 09:30:14;;;;;;;5.85;3.40;;;;;;;30.44;45.46;99278.66;4995977;28;20042;-70
2021/06/20 09:32:54;;;;;;;5.22;3.65;;;;;;;30.49;45.28;99282.56;4995388;28;20070;-69
2021/06/20 09:35:24;;;;;;;5.10;3.83;;;;;;;30.50;44.93;99284.22;4995551;28;20058;-70
2021/06/20 09:37:58;;;;;;;4.70;3.35;;;;;;;30.88;44.99;99282.59;4995515;28;20042;-71
2021/06/20 09:40:31;;;;;;;5.13;2.97;;;;;;;31.04;44.59;99288.16;4995390;28;20046;-69
2021/06/20 09:43:12;;;;;;;4.50;3.30;;;;;;;31.08;44.68;99289.53;4995393;28;20412;-72
2021/06/20 09:45:49;;;;;;;5.25;3.65;;;;;;;30.96;44.88;99286.22;4995369;28;20078;-72
2021/06/20 09:48:23;;;;;;;6.22;3.58;;;;;;;30.99;45.42;99291.22;4995250;28;20072;-70
2021/06/20 09:50:57;;;;;;;4.72;3.10;;;;;;;31.18;44.77;99279.81;4995183;28;20078;-69
2021/06/20 09:53:35;;;;;;;4.13;3.30;;;;;;;31.13;44.86;99279.41;4994961;28;20053;-71
2021/06/20 09:56:20;;;;;;;5.22;3.65;;;;;;;31.33;44.17;99272.28;4995255;28;20154;-70
2021/06/20 09:58:59;;;;;;;5.07;3.53;;;;;;;31.39;44.08;99277.81;4995338;28;20053;-68
2021/06/20 10:01:33;;;;;;;6.03;3.17;;;;;;;31.39;43.88;99275.19;4995087;28;20081;-70
2021/06/20 10:04:05;;;;;;;4.95;3.22;;;;;;;31.13;43.81;99282.03;4995048;28;20058;-69
2021/06/20 10:06:40;;;;;;;5.18;3.40;;;;;;;31.27;44.23;99278.13;4994981;28;20058;-71
2021/06/20 10:09:28;;;;;;;5.00;3.45;;;;;;;31.32;43.77;99271.44;4844528;23;20135;-72
2021/06/20 10:11:59;;;;;;;6.10;3.80;;;;;;;31.35;43.98;99271.16;4937344;29;20051;-69
2021/06/20 10:14:29;;;;;;;4.60;3.60;;;;;;;31.57;43.13;99276.16;4936987;29;20401;-70
2021/06/20 10:17:07;;;;;;;5.35;3.60;;;;;;;31.67;43.46;99271.66;4937041;29;20052;-67
2021/06/20 10:19:42;;;;;;;5.43;3.47;;;;;;;31.47;44.09;99264.78;4936316;29;20058;-69
2021/06/20 10:22:19;;;;;;;4.95;3.50;;;;;;;31.52;43.54;99262.56;4936948;29;20060;-69
2021/06/20 10:24:51;;;;;;;4.50;3.15;;;;;;;31.52;43.78;99262.56;4936891;29;20115;-67
2021/06/20 10:27:32;;;;;;;4.13;3.10;;;;;;;31.49;42.95;99262.00;4937139;29;20060;-70
2021/06/20 10:30:05;;;;;;;4.50;3.10;;;;;;;31.41;42.53;99270.59;4936875;29;20083;-72
2021/06/20 10:32:42;;;;;;;5.28;3.05;;;;;;;31.46;43.34;99263.09;4936717;29;20066;-71
2021/06/20 10:35:17;;;;;;;5.38;3.50;;;;;;;31.80;43.10;99266.88;4936810;29;20075;-70
2021/06/20 10:37:52;;;;;;;5.40;3.30;;;;;;;31.63;42.76;99270.28;4936668;29;20055;-69
2021/06/20 10:40:25;;;;;;;5.05;3.30;;;;;;;31.61;43.03;99266.97;4936674;29;20074;-69
2021/06/20 10:42:59;;;;;;;4.85;3.53;;;;;;;31.73;42.09;99267.59;4936666;29;20054;-70
2021/06/20 10:45:35;;;;;;;5.10;3.25;;;;;;;31.97;42.31;99267.06;4936566;29;20111;-68
2021/06/20 10:48:18;;;;;;;3.97;3.08;;;;;;;31.98;41.71;99268.78;4936879;29;20075;-68
2021/06/20 10:50:52;;;;;;;4.45;3.45;;;;;;;32.21;41.77;99270.03;4936482;29;20134;-70
2021/06/20 10:53:29;;;;;;;4.85;3.65;;;;;;;32.46;42.60;99258.78;4936391;29;20043;-68
2021/06/20 10:56:00;;;;;;;6.20;3.30;;;;;;;32.54;42.49;99261.50;4936594;29;20091;-69
2021/06/20 10:58:31;;;;;;;5.25;3.13;;;;;;;32.53;42.10;99259.84;4936442;29;20052;-69
2021/06/20 11:01:08;;;;;;;4.35;3.30;;;;;;;32.53;42.18;99270.44;4936573;29;20052;-67
2021/06/20 11:03:47;;;;;;;4.15;3.13;;;;;;;32.44;42.74;99258.91;4936513;29;20074;-69
2021/06/20 11:06:18;;;;;;;4.63;3.17;;;;;;;32.22;42.65;99261.16;4936189;29;20130;-70
2021/06/20 11:08:57;;;;;;;6.05;3.40;;;;;;;32.11;42.76;99256.06;4936371;29;20052;-68
2021/06/20 11:11:31;;;;;;;;;;;;;;;32.18;42.59;99255.31;4970590;28;20059;-68
2021/06/20 11:14:07;;;;;;;5.93;3.83;;;;;;;32.45;41.82;99246.53;4974669;28;19922;-70
2021/06/20 11:16:40;;;;;;;6.20;3.85;;;;;;;32.20;42.10;99247.25;4974819;28;20476;-68
2021/06/20 11:19:17;;;;;;;4.93;3.40;;;;;;;32.20;41.98;99236.69;4974755;28;20066;-69
2021/06/20 11:21:57;;;;;;;5.57;3.70;;;;;;;32.41;42.85;99234.59;4974736;28;20493;-70
2021/06/20 11:24:33;;;;;;;5.20;3.40;;;;;;;32.26;42.25;99220.22;4974593;28;20129;-70
2021/06/20 11:27:08;;;;;;;4.90;3.67;;;;;;;32.16;43.44;99222.09;4974622;28;20138;-70
2021/06/20 11:29:42;;;;;;;5.53;3.25;;;;;;;32.31;43.12;99215.34;4975848;28;20078;-70
2021/06/20 11:32:19;;;;;;;6.25;3.63;;;;;;;32.36;42.49;99215.72;4978490;28;20102;-71
2021/06/20 11:34:53;;;;;;;5.65;3.47;;;;;;;32.28;42.73;99207.69;4978129;28;20139;-70
2021/06/20 11:37:30;;;;;;;4.65;3.60;;;;;;;32.47;43.16;99213.66;4978360;28;20052;-70
2021/06/20 11:40:01;;;;;;;4.30;3.50;;;;;;;32.43;43.46;99214.97;4978205;28;20563;-71
2021/06/20 11:42:35;;;;;;;4.97;3.70;;;;;;;32.51;42.98;99206.31;4977986;28;20058;-69
2021/06/20 11:45:11;;;;;;;4.65;3.63;;;;;;;32.77;42.60;99204.56;4978144;28;20058;-70
2021/06/20 11:47:45;;;;;;;5.20;3.63;;;;;;;32.82;42.40;99204.09;4978147;28;20109;-71
2021/06/20 11:50:18;;;;;;;5.07;3.50;;;;;;;32.66;42.58;99199.50;4978069;28;20059;-69
2021/06/20 11:52:52;;;;;;;5.82;3.60;;;;;;;32.72;42.09;99198.91;4978081;28;20051;-69
2021/06/20 11:55:23;;;;;;;4.57;3.70;;;;;;;32.79;41.43;99186.72;4977612;28;20432;-70
2021/06/20 11:58:01;;;;;;;6.22;4.15;;;;;;;32.93;41.25;99183.50;4977973;28;20046;-68
2021/06/20 12:00:37;;;;;;;4.63;3.47;;;;;;;32.98;41.47;99168.00;4977951;28;20062;-70
2021/06/20 12:03:12;;;;;;;5.07;3.65;;;;;;;33.08;42.04;99171.41;4977846;28;20399;-72